createdAt,value
2022-12-11T00:01:42.929Z,100394.16
2022-12-11T00:04:09.228Z,100401.63
2022-12-11T00:06:35.500Z,100394.63
2022-12-11T00:09:01.840Z,100397.56
2022-12-11T00:11:28.100Z,100388.91
2022-12-11T00:13:54.380Z,100403.66
2022-12-11T00:16:26.544Z,100395.00
2022-12-11T00:18:53.538Z,100398.75
2022-12-11T00:21:19.944Z,100395.50
2022-12-11T00:23:46.252Z,100405.66
2022-12-11T00:26:12.505Z,100401.09
2022-12-11T00:28:38.771Z,100396.78
2022-12-11T00:31:05.303Z,100396.19
2022-12-11T00:33:31.737Z,100386.72
2022-12-11T00:35:58.119Z,100393.16
2022-12-11T00:38:24.419Z,100387.19
2022-12-11T00:40:50.708Z,100395.50
2022-12-11T00:43:16.944Z,100401.94
2022-12-11T00:45:43.338Z,100400.53
2022-12-11T00:48:09.759Z,100398.09
2022-12-11T00:50:36.211Z,100397.50
2022-12-11T00:53:02.564Z,100396.91
2022-12-11T00:55:28.816Z,100399.59
2022-12-11T00:57:55.279Z,100399.03
2022-12-11T01:00:21.515Z,100401.72
2022-12-11T01:02:50.623Z,100390.38
2022-12-11T01:05:16.936Z,100394.34
2022-12-11T01:07:43.348Z,100394.59
2022-12-11T01:10:09.663Z,100394.03
2022-12-11T01:12:36.017Z,100395.09
2022-12-11T01:15:02.547Z,100400.91
2022-12-11T01:17:28.920Z,100392.84
2022-12-11T01:19:55.267Z,100393.91
2022-12-11T01:22:21.672Z,100395.78
2022-12-11T01:24:47.991Z,100394.38
2022-12-11T01:27:14.252Z,100403.72
2022-12-11T01:29:40.600Z,100396.13
2022-12-11T01:32:07.015Z,100394.50
2022-12-11T01:34:33.294Z,100397.41
2022-12-11T01:36:59.564Z,100398.47
2022-12-11T01:39:26.023Z,100399.53
2022-12-11T01:41:52.296Z,100401.63
2022-12-11T01:44:18.649Z,100399.16
2022-12-11T01:46:44.915Z,100400.44
2022-12-11T01:49:11.351Z,100402.34
2022-12-11T01:51:37.669Z,100410.41
2022-12-11T01:54:03.996Z,100397.19
2022-12-11T01:56:30.592Z,100397.19
2022-12-11T01:58:56.841Z,100394.13
2022-12-11T02:01:23.155Z,100392.75
2022-12-11T02:03:50.043Z,100395.44
2022-12-11T02:06:16.696Z,100399.16
2022-12-11T02:08:43.940Z,100407.47
2022-12-11T02:11:10.327Z,100405.84
2022-12-11T02:13:37.065Z,100403.38
2022-12-11T02:16:04.318Z,100403.59
2022-12-11T02:23:45.479Z,100396.81
2022-12-11T02:26:11.791Z,100401.03
2022-12-11T02:28:38.214Z,100394.84
2022-12-11T02:31:04.514Z,100401.47
2022-12-11T02:33:30.820Z,100397.13
2022-12-11T02:35:57.542Z,100397.13
2022-12-11T02:38:23.925Z,100395.50
2022-12-11T02:40:50.259Z,100396.56
2022-12-11T02:43:16.567Z,100392.25
2022-12-11T02:45:42.905Z,100393.28
2022-12-11T02:48:09.248Z,100393.53
2022-12-11T02:50:35.691Z,100387.56
2022-12-11T02:53:02.060Z,100389.44
2022-12-11T02:55:28.405Z,100384.53
2022-12-11T02:57:54.761Z,100385.34
2022-12-11T03:00:21.128Z,100376.50
2022-12-11T03:02:47.597Z,100378.56
2022-12-11T03:05:14.032Z,100378.56
2022-12-11T03:07:40.378Z,100370.19
2022-12-11T03:10:06.624Z,100374.72
2022-12-11T03:12:32.992Z,100370.41
2022-12-11T03:15:00.296Z,100365.25
2022-12-11T03:17:26.756Z,100363.63
2022-12-11T03:19:53.250Z,100367.59
2022-12-11T03:22:19.664Z,100359.56
2022-12-11T03:24:45.959Z,100352.56
2022-12-11T03:27:12.368Z,100354.41
2022-12-11T03:29:38.834Z,100360.84
2022-12-11T03:32:05.112Z,100358.38
2022-12-11T03:34:31.402Z,100363.75
2022-12-11T03:36:57.651Z,100369.56
2022-12-11T03:39:23.953Z,100369.56
2022-12-11T03:41:50.315Z,100371.44
2022-12-11T03:44:16.627Z,100368.16
2022-12-11T03:46:42.963Z,100364.69
2022-12-11T03:49:09.270Z,100365.47
2022-12-11T03:51:35.586Z,100367.38
2022-12-11T03:54:02.012Z,100376.44
2022-12-11T03:56:28.300Z,100372.13
2022-12-11T03:58:54.531Z,100377.94
2022-12-11T04:01:20.970Z,100380.63
2022-12-11T04:03:47.993Z,100367.47
2022-12-11T04:06:15.035Z,100370.38
2022-12-11T04:08:41.838Z,100369.78
2022-12-11T04:11:08.841Z,100368.16
2022-12-11T04:13:36.683Z,100378.06
2022-12-11T04:16:03.692Z,100374.56
2022-12-11T04:18:30.304Z,100358.69
2022-12-11T04:20:57.555Z,100362.44
2022-12-11T04:23:24.069Z,100368.59
2022-12-11T04:25:50.684Z,100356.47
2022-12-11T04:28:17.512Z,100359.97
2022-12-11T04:30:45.115Z,100364.50
2022-12-11T04:33:11.759Z,100358.34
2022-12-11T04:35:38.277Z,100348.63
2022-12-11T04:38:04.663Z,100355.06
2022-12-11T04:40:30.963Z,100355.28
2022-12-11T04:42:57.215Z,100353.44
2022-12-11T04:45:23.537Z,100349.13
2022-12-11T04:47:49.815Z,100356.56
2022-12-11T04:50:16.199Z,100354.09
2022-12-11T04:52:42.499Z,100360.31
2022-12-11T04:55:09.156Z,100365.06
2022-12-11T04:57:35.801Z,100359.69
2022-12-11T05:00:02.094Z,100364.50
2022-12-11T05:02:28.406Z,100358.06
2022-12-11T05:04:54.786Z,100360.97
2022-12-11T05:07:21.119Z,100360.19
2022-12-11T05:09:47.423Z,100353.63
2022-12-11T05:12:13.823Z,100352.59
2022-12-11T05:14:40.176Z,100344.75
2022-12-11T05:17:06.552Z,100345.81
2022-12-11T05:19:32.880Z,100341.28
2022-12-11T05:21:59.188Z,100339.63
2022-12-11T05:24:25.487Z,100339.03
2022-12-11T05:26:51.723Z,100338.00
2022-12-11T05:29:17.985Z,100343.81
2022-12-11T05:31:45.292Z,100345.69
2022-12-11T05:34:11.607Z,100341.34
2022-12-11T05:36:37.869Z,100345.69
2022-12-11T05:39:04.173Z,100340.53
2022-12-11T05:41:30.491Z,100331.91
2022-12-11T05:43:56.856Z,100335.63
2022-12-11T05:46:23.165Z,100331.09
2022-12-11T05:48:49.506Z,100328.88
2022-12-11T05:51:15.892Z,100324.13
2022-12-11T05:53:42.217Z,100327.25
2022-12-11T05:56:08.739Z,100324.56
2022-12-11T05:58:35.057Z,100323.16
2022-12-11T06:01:01.416Z,100324.22
2022-12-11T06:03:27.818Z,100312.66
2022-12-11T06:05:54.091Z,100312.66
2022-12-11T06:08:20.711Z,100311.81
2022-12-11T06:10:47.078Z,100312.88
2022-12-11T06:13:13.419Z,100307.53
2022-12-11T06:15:39.750Z,100314.97
2022-12-11T06:18:06.184Z,100310.66
2022-12-11T06:20:32.644Z,100321.38
2022-12-11T06:22:59.075Z,100317.88
2022-12-11T06:25:25.367Z,100319.97
2022-12-11T06:27:51.649Z,100322.66
2022-12-11T06:30:17.995Z,100318.56
2022-12-11T06:32:44.282Z,100322.88
2022-12-11T06:35:10.721Z,100324.75
2022-12-11T06:37:37.374Z,100322.28
2022-12-11T06:40:03.695Z,100321.47
2022-12-11T06:42:29.994Z,100320.06
2022-12-11T06:44:56.224Z,100318.44
2022-12-11T06:47:22.506Z,100321.13
2022-12-11T06:49:48.807Z,100321.13
2022-12-11T06:52:18.362Z,100328.56
2022-12-11T06:54:45.277Z,100320.53
2022-12-11T06:57:11.620Z,100329.59
2022-12-11T06:59:37.970Z,100327.97
2022-12-11T07:02:04.368Z,100322.63
2022-12-11T07:04:30.777Z,100322.63
2022-12-11T07:06:57.100Z,100320.97
2022-12-11T07:09:23.334Z,100311.28
2022-12-11T07:11:49.607Z,100323.84
2022-12-11T07:14:15.915Z,100315.22
2022-12-11T07:16:42.345Z,100310.31
2022-12-11T07:19:08.703Z,100313.81
2022-12-11T07:21:35.118Z,100310.91
2022-12-11T07:24:01.409Z,100318.38
2022-12-11T07:26:27.821Z,100318.38
2022-12-11T07:28:54.060Z,100318.59
2022-12-11T07:31:20.513Z,100330.34
2022-12-11T07:33:46.839Z,100333.03
2022-12-11T07:36:13.189Z,100336.50
2022-12-11T07:38:39.436Z,100342.09
2022-12-11T07:41:05.830Z,100348.50
2022-12-11T07:43:33.079Z,100340.69
2022-12-11T07:45:59.571Z,100350.59
2022-12-11T07:48:25.878Z,100348.94
2022-12-11T07:50:52.149Z,100349.19
2022-12-11T07:53:18.559Z,100352.69
2022-12-11T07:55:44.846Z,100361.78
2022-12-11T07:58:11.190Z,100349.44
2022-12-11T08:00:37.558Z,100348.38
2022-12-11T08:03:03.860Z,100351.50
2022-12-11T08:05:30.197Z,100352.31
2022-12-11T08:07:56.591Z,100349.88
2022-12-11T08:10:22.927Z,100349.88
2022-12-11T08:12:49.219Z,100348.25
2022-12-11T08:15:15.497Z,100341.25
2022-12-11T08:17:41.771Z,100350.91
2022-12-11T08:20:08.077Z,100351.97
2022-12-11T08:22:34.593Z,100344.16
2022-12-11T08:25:00.948Z,100345.41
2022-12-11T08:27:27.374Z,100357.75
2022-12-11T08:29:53.768Z,100351.78
2022-12-11T08:32:20.190Z,100349.13
2022-12-11T08:34:46.705Z,100351.22
2022-12-11T08:37:13.012Z,100352.06
2022-12-11T08:39:39.585Z,100357.41
2022-12-11T08:42:05.838Z,100356.56
2022-12-11T08:44:32.506Z,100364.63
2022-12-11T08:46:58.996Z,100359.47
2022-12-11T08:49:27.622Z,100357.84
2022-12-11T08:51:57.547Z,100363.22
2022-12-11T08:54:24.049Z,100364.84
2022-12-11T08:56:54.808Z,100357.00
2022-12-11T08:59:24.072Z,100363.22
2022-12-11T09:01:50.495Z,100358.28
2022-12-11T09:04:16.913Z,100365.28
2022-12-11T09:06:43.231Z,100359.34
2022-12-11T09:09:09.513Z,100363.06
2022-12-11T09:11:35.831Z,100371.31
2022-12-11T09:14:07.246Z,100362.22
2022-12-11T09:16:34.107Z,100368.03
2022-12-11T09:19:00.371Z,100359.19
2022-12-11T09:21:26.636Z,100353.00
2022-12-11T09:23:53.095Z,100363.50
2022-12-11T09:26:19.455Z,100357.53
2022-12-11T09:28:46.874Z,100346.81
2022-12-11T09:41:47.772Z,100336.88
2022-12-11T09:49:24.802Z,100335.69
2022-12-11T09:51:52.751Z,100336.94
2022-12-11T09:54:19.088Z,100334.28
2022-12-11T09:56:45.412Z,100329.97
2022-12-11T09:59:11.832Z,100324.81
2022-12-11T10:01:38.192Z,100321.09
2022-12-11T10:04:04.505Z,100320.28
2022-12-11T10:06:30.805Z,100318.22
2022-12-11T10:08:57.055Z,100319.25
2022-12-11T10:11:23.290Z,100321.84
2022-12-11T10:13:49.607Z,100314.69
2022-12-11T10:16:15.935Z,100306.50
2022-12-11T10:18:42.206Z,100306.06
2022-12-11T10:21:08.470Z,100311.66
2022-12-11T10:23:35.001Z,100312.31
2022-12-11T10:33:55.809Z,100314.59
2022-12-11T10:36:22.193Z,100304.81
2022-12-11T10:43:57.821Z,100290.47
2022-12-11T10:46:24.139Z,100293.06
2022-12-11T10:48:50.437Z,100284.78
2022-12-11T10:51:16.858Z,100284.66
2022-12-11T10:53:43.193Z,100282.63
2022-12-11T10:56:09.540Z,100283.09
2022-12-11T11:01:17.878Z,100292.78
2022-12-11T11:03:44.270Z,100285.31
2022-12-11T11:06:10.563Z,100277.00
2022-12-11T11:08:36.855Z,100272.00
2022-12-11T11:11:03.178Z,100269.63
2022-12-11T11:13:29.585Z,100268.69
2022-12-11T11:15:55.955Z,100267.88
2022-12-11T11:18:22.449Z,100268.78
2022-12-11T11:20:48.711Z,100264.56
2022-12-11T11:23:15.164Z,100263.06
2022-12-11T11:25:41.639Z,100260.69
2022-12-11T11:28:07.916Z,100259.94
2022-12-11T11:30:34.243Z,100257.63
2022-12-11T11:33:00.535Z,100260.63
2022-12-11T11:35:26.801Z,100259.00
2022-12-11T11:37:53.294Z,100266.34
2022-12-11T11:42:49.213Z,100261.41
2022-12-11T11:45:15.522Z,100257.19
2022-12-11T11:47:41.834Z,100257.25
2022-12-11T11:50:08.075Z,100255.72
2022-12-11T11:52:34.371Z,100249.28
2022-12-11T11:55:00.627Z,100251.50
2022-12-11T11:57:26.986Z,100246.72
2022-12-11T11:59:53.436Z,100246.47
2022-12-11T12:02:19.890Z,100251.97
2022-12-11T12:04:46.199Z,100249.81
2022-12-11T12:07:12.490Z,100244.75
2022-12-11T12:09:38.861Z,100246.97
2022-12-11T12:12:05.276Z,100239.75
2022-12-11T12:17:17.880Z,100237.38
2022-12-11T12:19:47.523Z,100234.69
2022-12-11T12:22:13.810Z,100242.03
2022-12-11T12:24:40.152Z,100235.56
2022-12-11T12:27:17.698Z,100238.59
2022-12-11T12:29:52.725Z,100243.50
2022-12-11T12:32:19.096Z,100239.25
2022-12-11T12:34:45.500Z,100235.50
2022-12-11T12:37:11.826Z,100239.56
2022-12-11T12:39:38.078Z,100230.41
2022-12-11T12:42:07.726Z,100224.88
2022-12-11T12:44:34.766Z,100228.94
2022-12-11T12:52:16.920Z,100226.50
2022-12-11T12:54:43.288Z,100225.19
2022-12-11T12:57:09.775Z,100224.19
2022-12-11T12:59:36.384Z,100227.28
2022-12-11T13:02:02.837Z,100214.22
2022-12-11T13:04:54.345Z,100217.22
2022-12-11T13:07:15.395Z,100217.31
2022-12-11T13:09:41.809Z,100211.66
2022-12-11T13:12:08.228Z,100218.00
2022-12-11T13:14:34.632Z,100216.09
2022-12-11T13:17:00.977Z,100215.31
2022-12-11T13:22:02.927Z,100214.03
2022-12-11T13:24:29.293Z,100211.66
2022-12-11T13:26:55.553Z,100211.97
2022-12-11T13:29:21.832Z,100210.84
2022-12-11T13:53:08.960Z,100191.75
2022-12-11T13:58:10.415Z,100193.44
2022-12-11T14:00:36.748Z,100190.25
2022-12-11T14:03:03.434Z,100187.81
2022-12-11T14:05:29.899Z,100188.09
2022-12-11T14:07:56.418Z,100189.72
2022-12-11T14:10:22.903Z,100186.81
2022-12-11T14:12:49.178Z,100190.09
2022-12-11T14:15:15.471Z,100186.91
2022-12-11T14:17:41.707Z,100185.28
2022-12-11T14:20:08.144Z,100195.53
2022-12-11T14:22:34.632Z,100199.56
2022-12-11T14:25:00.862Z,100193.91
2022-12-11T14:27:27.101Z,100200.44
2022-12-11T14:29:53.423Z,100200.44
2022-12-11T14:34:53.234Z,100208.88
2022-12-11T14:37:19.634Z,100207.31
2022-12-11T14:39:45.978Z,100206.53
2022-12-11T14:44:41.449Z,100210.03
2022-12-11T14:47:07.732Z,100209.50
2022-12-11T14:49:34.166Z,100216.44
2022-12-11T14:52:00.865Z,100208.75
2022-12-11T14:54:27.369Z,100211.91
2022-12-11T14:56:53.709Z,100205.66
2022-12-11T14:59:20.173Z,100200.75
2022-12-11T15:01:46.456Z,100206.94
2022-12-11T15:04:12.764Z,100213.66
2022-12-11T15:06:39.209Z,100204.97
2022-12-11T15:09:05.542Z,100207.38
2022-12-11T15:11:31.919Z,100203.75
2022-12-11T15:13:58.316Z,100199.44
2022-12-11T15:16:24.673Z,100201.22
2022-12-11T15:21:27.057Z,100199.88
2022-12-11T15:23:53.696Z,100209.25
2022-12-11T15:26:20.236Z,100208.09
2022-12-11T15:28:46.571Z,100210.78
2022-12-11T15:31:12.838Z,100205.84
2022-12-11T15:33:39.283Z,100208.00
2022-12-11T15:36:05.749Z,100207.38
2022-12-11T15:38:32.082Z,100197.53
2022-12-11T15:40:58.505Z,100203.41
2022-12-11T15:43:24.972Z,100205.06
2022-12-11T15:45:51.534Z,100203.75
2022-12-11T15:48:18.060Z,100208.44
2022-12-11T15:50:44.368Z,100210.72
2022-12-11T15:53:10.655Z,100209.59
2022-12-11T15:55:36.978Z,100204.31
2022-12-11T15:58:03.289Z,100207.09
2022-12-11T16:00:29.669Z,100204.28
2022-12-11T16:02:55.999Z,100203.81
2022-12-11T16:05:22.344Z,100203.34
2022-12-11T16:07:48.764Z,100204.47
2022-12-11T16:10:15.189Z,100207.75
2022-12-11T16:12:41.614Z,100209.97
2022-12-11T16:15:07.933Z,100209.97
2022-12-11T16:17:34.212Z,100205.41
2022-12-11T16:20:00.521Z,100212.41
2022-12-11T16:22:26.878Z,100212.16
2022-12-11T16:24:53.297Z,100205.16
2022-12-11T16:27:23.037Z,100210.28
2022-12-11T16:29:49.830Z,100204.09
2022-12-11T16:32:16.148Z,100202.25
2022-12-11T16:34:42.396Z,100210.78
2022-12-11T16:37:08.775Z,100198.41
2022-12-11T16:39:35.080Z,100202.16
2022-12-11T16:42:01.348Z,100202.38
2022-12-11T16:44:27.821Z,100199.09
2022-12-11T16:46:54.055Z,100191.03
2022-12-11T16:49:20.355Z,100192.09
2022-12-11T16:51:46.662Z,100194.00
2022-12-11T16:54:13.084Z,100195.03
2022-12-11T16:56:39.376Z,100195.75
2022-12-11T16:59:05.790Z,100189.31
2022-12-11T17:01:32.350Z,100189.56
2022-12-11T17:03:58.757Z,100196.81
2022-12-11T17:06:25.156Z,100195.41
2022-12-11T17:08:51.462Z,100198.34
2022-12-11T17:11:17.744Z,100194.00
2022-12-11T17:13:44.101Z,100196.13
2022-12-11T17:16:10.455Z,100195.53
2022-12-11T17:18:37.012Z,100196.38
2022-12-11T17:21:03.401Z,100194.97
2022-12-11T17:23:29.690Z,100191.69
2022-12-11T17:25:56.591Z,100190.06
2022-12-11T17:28:22.990Z,100193.81
2022-12-11T17:30:49.328Z,100194.06
2022-12-11T17:33:15.895Z,100184.59
2022-12-11T17:35:42.188Z,100199.88
2022-12-11T17:38:08.627Z,100195.53
2022-12-11T17:40:35.035Z,100198.47
2022-12-11T17:43:01.356Z,100198.72
2022-12-11T17:45:27.668Z,100195.22
2022-12-11T17:47:53.939Z,100191.94
2022-12-11T17:50:20.258Z,100202.66
2022-12-11T17:52:46.589Z,100202.34
2022-12-11T17:55:13.215Z,100191.59
2022-12-11T17:57:39.621Z,100199.88
2022-12-11T18:00:05.958Z,100189.06
2022-12-11T18:02:32.260Z,100191.16
2022-12-11T18:04:58.569Z,100192.78
2022-12-11T18:07:24.940Z,100201.31
2022-12-11T18:09:51.277Z,100198.84
2022-12-11T18:12:17.584Z,100204.44
2022-12-11T18:14:43.882Z,100200.16
2022-12-11T18:17:10.116Z,100211.94
2022-12-11T18:19:39.180Z,100205.97
2022-12-11T18:22:09.322Z,100203.56
2022-12-11T18:24:35.739Z,100209.94
2022-12-11T18:27:02.055Z,100205.63
2022-12-11T18:29:28.350Z,100210.44
2022-12-11T18:31:54.850Z,100202.63
2022-12-11T18:34:21.196Z,100200.16
2022-12-11T18:36:47.485Z,100192.56
2022-12-11T18:39:13.883Z,100192.81
2022-12-11T18:41:40.170Z,100199.22
2022-12-11T18:44:09.689Z,100204.38
2022-12-11T18:46:36.603Z,100201.69
2022-12-11T18:49:02.937Z,100200.53
2022-12-11T18:51:29.359Z,100198.06
2022-12-11T18:53:55.746Z,100200.97
2022-12-11T18:56:22.064Z,100199.34
2022-12-11T18:58:48.515Z,100192.59
2022-12-11T19:01:14.893Z,100181.28
2022-12-11T19:03:41.296Z,100180.47
2022-12-11T19:06:07.675Z,100184.22
2022-12-11T19:08:33.903Z,100181.75
2022-12-11T19:11:00.311Z,100188.97
2022-12-11T19:13:26.555Z,100190.25
2022-12-11T19:15:53.062Z,100191.31
2022-12-11T19:18:19.435Z,100195.28
2022-12-11T19:20:51.755Z,100190.97
2022-12-11T19:23:21.868Z,100189.56
2022-12-11T19:25:48.133Z,100189.56
2022-12-11T19:28:14.435Z,100195.19
2022-12-11T19:30:40.707Z,100197.25
2022-12-11T19:33:07.012Z,100202.03
2022-12-11T19:35:33.299Z,100196.69
2022-12-11T19:37:59.655Z,100199.59
2022-12-11T19:40:26.056Z,100196.09
2022-12-11T19:42:52.319Z,100200.06
2022-12-11T19:45:18.674Z,100186.88
2022-12-11T19:47:45.091Z,100187.94
2022-12-11T19:50:11.318Z,100187.09
2022-12-11T19:52:42.864Z,100188.16
2022-12-11T19:55:12.361Z,100180.34
2022-12-11T19:57:38.898Z,100186.75
2022-12-11T20:00:05.210Z,100187.81
2022-12-11T20:02:31.603Z,100190.72
2022-12-11T20:04:57.942Z,100182.69
2022-12-11T20:07:30.330Z,100175.91
2022-12-11T20:09:56.977Z,100185.81
2022-12-11T20:12:23.228Z,100184.19
2022-12-11T20:14:49.530Z,100179.06
2022-12-11T20:17:16.088Z,100180.94
2022-12-11T20:19:42.670Z,100176.59
2022-12-11T20:22:08.963Z,100191.06
2022-12-11T20:24:35.384Z,100182.44
2022-12-11T20:27:01.710Z,100180.34
2022-12-11T20:29:28.008Z,100183.47
2022-12-11T20:31:54.361Z,100177.53
2022-12-11T20:34:20.659Z,100182.06
2022-12-11T20:36:46.914Z,100171.56
2022-12-11T20:39:13.291Z,100171.84
2022-12-11T20:41:39.695Z,100173.69
2022-12-11T20:44:05.959Z,100179.88
2022-12-11T20:46:32.459Z,100181.72
2022-12-11T20:48:58.781Z,100185.47
2022-12-11T20:51:26.255Z,100181.38
2022-12-11T20:53:52.930Z,100175.19
2022-12-11T20:56:19.402Z,100180.56
2022-12-11T20:58:45.675Z,100170.88
2022-12-11T21:01:11.997Z,100176.44
2022-12-11T21:03:41.998Z,100182.63
2022-12-11T21:06:08.608Z,100176.66
2022-12-11T21:08:34.967Z,100173.41
2022-12-11T21:11:01.335Z,100175.28
2022-12-11T21:13:27.615Z,100179.00
2022-12-11T21:15:53.941Z,100173.88
2022-12-11T21:18:20.244Z,100175.50
2022-12-11T21:20:46.522Z,100178.41
2022-12-11T21:23:12.867Z,100174.09
2022-12-11T21:25:39.309Z,100177.84
2022-12-11T21:28:05.620Z,100181.56
2022-12-11T21:30:31.878Z,100184.25
2022-12-11T21:32:58.122Z,100175.38
2022-12-11T21:35:24.498Z,100174.78
2022-12-11T21:37:50.829Z,100173.38
2022-12-11T21:40:17.138Z,100184.69
2022-12-11T21:42:43.372Z,100189.72
2022-12-11T21:47:56.104Z,100194.22
2022-12-11T21:50:22.559Z,100191.78
2022-12-11T21:52:48.858Z,100177.56
2022-12-11T21:55:15.280Z,100184.56
2022-12-11T21:57:41.569Z,100184.78
2022-12-11T22:00:07.960Z,100187.47
2022-12-11T22:02:40.465Z,100177.22
2022-12-11T22:05:07.384Z,100181.50
2022-12-11T22:07:33.922Z,100180.94
2022-12-11T22:10:00.169Z,100177.22
2022-12-11T22:12:26.495Z,100178.25
2022-12-11T22:14:52.917Z,100179.31
2022-12-11T22:17:19.252Z,100177.66
2022-12-11T22:19:45.557Z,100175.81
2022-12-11T22:22:11.912Z,100169.63
2022-12-11T22:24:38.446Z,100170.66
2022-12-11T22:27:04.723Z,100174.41
2022-12-11T22:29:30.962Z,100168.22
2022-12-11T22:31:57.320Z,100167.41
2022-12-11T22:34:23.811Z,100164.97
2022-12-11T22:36:50.228Z,100156.94
2022-12-11T22:39:16.470Z,100149.94
2022-12-11T22:41:42.847Z,100147.50
2022-12-11T22:44:09.258Z,100136.56
2022-12-11T22:46:35.675Z,100142.94
2022-12-11T22:49:02.015Z,100144.59
2022-12-11T22:51:28.307Z,100140.50
2022-12-11T22:53:54.641Z,100134.91
2022-12-11T22:56:20.998Z,100139.22
2022-12-11T22:58:47.329Z,100137.34
2022-12-11T23:01:13.603Z,100137.56
2022-12-11T23:03:39.951Z,100147.00
2022-12-11T23:06:06.436Z,100140.25
2022-12-11T23:08:32.930Z,100144.00
2022-12-11T23:10:59.346Z,100141.91
2022-12-11T23:13:25.747Z,100146.66
2022-12-11T23:15:52.072Z,100151.44
2022-12-11T23:18:18.518Z,100150.28
2022-12-11T23:20:44.838Z,100143.50
2022-12-11T23:23:14.169Z,100150.16
2022-12-11T23:25:40.526Z,100146.88
2022-12-11T23:28:07.483Z,100149.75
2022-12-11T23:30:34.122Z,100146.28
2022-12-11T23:33:00.512Z,100145.69
2022-12-11T23:35:26.871Z,100134.41
2022-12-11T23:37:53.269Z,100139.97
2022-12-11T23:40:19.865Z,100141.03
2022-12-11T23:42:46.340Z,100141.25
2022-12-11T23:45:12.918Z,100151.34
2022-12-11T23:47:39.406Z,100146.00
2022-12-11T23:50:05.696Z,100140.06
2022-12-11T23:52:31.978Z,100136.78
2022-12-11T23:54:58.242Z,100122.59
2022-12-11T23:57:24.610Z,100120.16
2022-12-11T23:59:50.910Z,100129.25
